This is the latest recevied weather packets stored in our database for station/object K6JWN. If no packets are shown the sender has not sent any weather packets the latest 1 day(s).
| Time | Temp. | Humidity | Pressure | Rain* | Wind** | Luminosity | Snow |
|---|---|---|---|---|---|---|---|
| 1778099957 | 22.22° C | 48% | 1018.6 hPa | 0 mm | - | - | - |
| 1778098157 | 21.11° C | 50% | 1018.9 hPa | 0 mm | - | - | - |
| 1778096357 | 21.67° C | 55% | 1019.2 hPa | 0 mm | - | - | - |
| 1778095157 | 21.11° C | 59% | 1019.5 hPa | 0 mm | - | - | - |
| 1778093957 | 20.56° C | 63% | 1019.7 hPa | 0 mm | - | - | - |
| 1778090357 | 18.33° C | 69% | 1019.9 hPa | 0 mm | - | - | - |
| 1778089157 | 17.78° C | 68% | 1019.9 hPa | 0 mm | - | - | - |
| 1778087357 | 17.22° C | 71% | 1020 hPa | 0 mm | - | - | - |
| 1778084357 | 15.56° C | 73% | 1019.9 hPa | 0 mm | - | - | - |
| 1778082557 | 15° C | 74% | 1020.1 hPa | 0 mm | - | - | - |
| 1778081957 | 15° C | 74% | 1020.1 hPa | 0 mm | - | - | - |
| 1778080157 | 14.44° C | 74% | 1019.9 hPa | 0 mm | - | - | - |
| 1778079557 | 14.44° C | 75% | 1019.8 hPa | 0 mm | - | - | - |
| 1778077757 | 13.89° C | 76% | 1019.7 hPa | 0 mm | - | - | - |
| 1778076557 | 13.89° C | 77% | 1019.5 hPa | 0 mm | - | - | - |
| 1778074757 | 13.33° C | 78% | 1019.2 hPa | 0 mm | - | - | - |
| 1778074157 | 13.33° C | 79% | 1019.2 hPa | 0 mm | - | - | - |
| 1778071757 | 13.33° C | 78% | 1019.1 hPa | 0 mm | - | - | - |
| 1778063356 | 13.89° C | 77% | 1018.2 hPa | 0 mm | - | - | - |
| 1778061557 | 13.89° C | 77% | 1018.2 hPa | 0 mm | - | - | - |
| 1778059156 | 13.89° C | 76% | 1018.1 hPa | 0 mm | - | - | - |
| 1778057356 | 13.89° C | 76% | 1018.1 hPa | 0 mm | - | - | - |
| 1778056756 | 13.89° C | 76% | 1018.2 hPa | 0 mm | - | - | - |
| 1778055556 | 13.89° C | 77% | 1018.3 hPa | 0 mm | - | - | - |
| 1778054956 | 13.89° C | 78% | 1018.2 hPa | 0 mm | - | - | - |
* Rain latest hour (hover to see other rain measurements)
** Current wind speed in m/s (hover to see current wind gust speed)